Olney Springs, Colorado
Current Conditions -  °F | °C
As of 10:53 PM on Thursday 18 Dec 2014 (Local Time) from KLHX Reporting Station
Broken Clouds Broken Clouds  
Wind Chill: 24°   Ceiling: 6500
Heat Index: 29°   Visibility: 7mi
Dew Point: 27°   Wind: 5mph
Humidity: 92%   Direction: 20°NNE
Pressure: 30.12"   Gusts: NA
Location:  38.17°N, 103.94°W
Report Text: KLHX 190553Z AUTO 02004KT 7SM FEW050 BKN065 BKN075 M02/M03 A3012 RMK AO2 SLP209 T10171028 10017 21017 51007
Loading
Personal Weather Stations






























Interactive Weather Map New forecast layout! Learn more

10-Day Weather Forecast

Advertisements
Track Severe Weather on mobile